Time;durP1;ratioP1;P1;durP2;ratioP2;P2;SDS_P1;SDS_P2;PMS_P1;PMS_P2;Temp;Humidity;BMP_temperature;BMP_pressure;BME280_temperature;BME280_humidity;BME280_pressure;Samples;Min_cycle;Max_cycle;Signal;HPM_P1;HPM_P2
2024/01/23 00:00:07;;;;;;;7.82;1.42;;;7.30;99.90;;;;;;6150386;23;20025;-90
2024/01/23 00:02:33;;;;;;;4.88;1.63;;;7.40;99.90;;;;;;6126291;23;20017;-89
2024/01/23 00:04:58;;;;;;;7.32;1.23;;;7.30;99.90;;;;;;6125847;23;20017;-89
2024/01/23 00:07:24;;;;;;;6.57;1.10;;;7.30;99.90;;;;;;6150220;23;20005;-89
2024/01/23 00:09:50;;;;;;;6.53;1.75;;;7.40;99.90;;;;;;6151180;23;20009;-89
2024/01/23 00:12:15;;;;;;;1.95;0.57;;;7.40;99.90;;;;;;6125556;23;20071;-89
2024/01/23 00:14:41;;;;;;;4.75;1.10;;;7.40;99.90;;;;;;6152059;23;20014;-89
2024/01/23 00:17:07;;;;;;;6.45;1.92;;;7.50;99.90;;;;;;6126081;23;20079;-89
2024/01/23 00:19:32;;;;;;;9.02;1.48;;;7.50;99.90;;;;;;6149866;23;20021;-89
2024/01/23 00:21:58;;;;;;;6.30;1.45;;;7.50;99.90;;;;;;6149794;23;20010;-89
2024/01/23 00:24:24;;;;;;;6.35;1.33;;;7.50;99.90;;;;;;6125949;23;20013;-88
2024/01/23 00:26:49;;;;;;;13.13;2.53;;;7.60;99.90;;;;;;6149910;23;20009;-88
2024/01/23 00:29:15;;;;;;;9.35;1.50;;;7.60;99.90;;;;;;6150379;23;20136;-89
2024/01/23 00:31:41;;;;;;;8.55;1.38;;;7.60;99.90;;;;;;6126478;23;20013;-89
2024/01/23 00:34:07;;;;;;;5.00;1.27;;;7.50;99.90;;;;;;6149830;23;20387;-88
2024/01/23 00:36:32;;;;;;;7.78;1.90;;;7.50;99.90;;;;;;6150415;23;20013;-89
2024/01/23 00:38:58;;;;;;;6.45;1.70;;;7.50;99.90;;;;;;6125157;23;20459;-88
2024/01/23 00:41:24;;;;;;;10.05;2.30;;;7.50;99.90;;;;;;6125740;23;20342;-88
2024/01/23 00:43:49;;;;;;;7.18;1.13;;;7.40;99.90;;;;;;6125683;23;20021;-88
2024/01/23 00:46:15;;;;;;;5.38;1.30;;;7.40;99.90;;;;;;6150175;23;20017;-90
2024/01/23 00:48:41;;;;;;;3.85;0.80;;;7.40;99.90;;;;;;6124350;23;20045;-89
2024/01/23 00:51:06;;;;;;;4.75;1.27;;;7.30;99.90;;;;;;6124302;23;20356;-89
2024/01/23 00:53:35;;;;;;;10.60;1.92;;;7.30;99.90;;;;;;6124532;23;20018;-89
2024/01/23 00:56:01;;;;;;;10.95;1.95;;;7.30;99.90;;;;;;6149091;23;20017;-89
2024/01/23 00:58:26;;;;;;;10.98;2.15;;;7.30;99.90;;;;;;6125289;23;20016;-89
2024/01/23 01:00:52;;;;;;;11.88;2.53;;;7.30;99.90;;;;;;6125085;23;20088;-88
2024/01/23 01:03:18;;;;;;;11.75;1.63;;;7.20;99.90;;;;;;6150054;23;20167;-88
2024/01/23 01:05:45;;;;;;;4.97;1.17;;;7.20;99.90;;;;;;6150709;23;20447;-89
2024/01/23 01:08:11;;;;;;;8.90;1.70;;;7.20;99.90;;;;;;6125180;23;20057;-88
2024/01/23 01:10:37;;;;;;;7.05;0.98;;;7.30;99.90;;;;;;6150756;23;20010;-89
2024/01/23 01:13:03;;;;;;;5.07;1.55;;;7.20;99.90;;;;;;6149729;23;20017;-88
2024/01/23 01:15:29;;;;;;;6.55;1.33;;;7.20;99.90;;;;;;6150159;23;20463;-88
2024/01/23 01:17:54;;;;;;;3.50;1.35;;;7.10;99.90;;;;;;6150813;23;20041;-88
2024/01/23 01:20:20;;;;;;;3.50;0.82;;;7.10;99.90;;;;;;6124385;23;20483;-88
2024/01/23 01:22:46;;;;;;;8.02;1.00;;;7.20;99.90;;;;;;6124115;23;20013;-88
2024/01/23 01:25:12;;;;;;;5.00;0.90;;;7.20;99.90;;;;;;6149503;23;20421;-89
2024/01/23 01:27:37;;;;;;;9.05;1.17;;;7.20;99.90;;;;;;6125539;23;20017;-88
2024/01/23 01:30:07;;;;;;;11.40;1.92;;;7.20;99.90;;;;;;6150029;23;20013;-88
2024/01/23 01:32:33;;;;;;;9.75;1.33;;;7.20;99.90;;;;;;6125919;23;20018;-89
2024/01/23 01:34:58;;;;;;;7.57;1.27;;;7.20;99.90;;;;;;6126545;23;20060;-89
2024/01/23 01:37:25;;;;;;;8.80;1.58;;;7.30;99.90;;;;;;6154344;23;20025;-89
2024/01/23 01:39:50;;;;;;;6.45;2.10;;;7.30;99.90;;;;;;6128059;23;20021;-89
2024/01/23 01:42:16;;;;;;;9.65;1.75;;;7.30;99.90;;;;;;6124955;23;20071;-89
2024/01/23 01:44:42;;;;;;;10.15;1.38;;;7.30;99.90;;;;;;6150011;23;20467;-89
2024/01/23 01:47:09;;;;;;;4.90;1.05;;;7.30;99.90;;;;;;6125672;23;20024;-89
2024/01/23 01:49:35;;;;;;;2.35;0.70;;;7.40;99.90;;;;;;6150191;23;20635;-89
2024/01/23 01:52:02;;;;;;;9.15;2.08;;;7.40;99.90;;;;;;6149895;23;20013;-89
2024/01/23 01:54:29;;;;;;;10.38;1.85;;;7.40;99.90;;;;;;6149272;23;20018;-89
2024/01/23 01:56:56;;;;;;;15.45;2.72;;;7.40;99.90;;;;;;6125206;23;20411;-89
2024/01/23 01:59:21;;;;;;;15.02;3.00;;;7.40;99.90;;;;;;6151716;23;20049;-89
2024/01/23 02:01:47;;;;;;;4.03;1.38;;;7.30;99.90;;;;;;6150279;23;20482;-89
2024/01/23 02:04:14;;;;;;;7.75;2.22;;;7.30;99.90;;;;;;6150164;23;20467;-88
2024/01/23 02:06:40;;;;;;;5.57;0.95;;;7.30;99.90;;;;;;6150206;23;20061;-88
2024/01/23 02:09:06;;;;;;;4.28;0.93;;;7.30;99.90;;;;;;6151420;23;20009;-89
2024/01/23 02:11:32;;;;;;;8.38;1.45;;;7.30;99.90;;;;;;6149449;23;20017;-88
2024/01/23 02:13:58;;;;;;;6.80;1.63;;;7.20;99.90;;;;;;6125074;23;20452;-88
2024/01/23 02:16:23;;;;;;;7.03;1.27;;;7.20;99.90;;;;;;6149619;23;20013;-88
2024/01/23 02:18:49;;;;;;;4.32;0.75;;;7.10;99.90;;;;;;6150122;23;20063;-88
2024/01/23 02:21:15;;;;;;;5.93;1.10;;;7.10;99.90;;;;;;6150400;23;20017;-88
2024/01/23 02:23:41;;;;;;;7.32;1.25;;;7.00;99.90;;;;;;6125266;23;20024;-88
2024/01/23 02:26:07;;;;;;;12.07;2.13;;;7.00;99.90;;;;;;6151017;23;20633;-89
2024/01/23 02:28:33;;;;;;;6.70;0.88;;;7.00;99.90;;;;;;6151026;23;20028;-88
2024/01/23 02:30:58;;;;;;;10.38;1.92;;;6.90;99.90;;;;;;6150993;23;20024;-88
2024/01/23 02:33:24;;;;;;;11.25;2.22;;;6.90;99.90;;;;;;6150888;23;20014;-88
2024/01/23 02:35:50;;;;;;;7.63;1.40;;;6.90;99.90;;;;;;6150204;23;20013;-89
2024/01/23 02:38:15;;;;;;;6.60;1.55;;;6.90;99.90;;;;;;6125870;23;20037;-89
2024/01/23 02:40:41;;;;;;;7.75;1.92;;;7.00;99.90;;;;;;6125877;23;20013;-89
2024/01/23 02:43:06;;;;;;;4.90;1.00;;;6.90;99.90;;;;;;6125632;23;20065;-88
2024/01/23 02:45:32;;;;;;;5.03;1.20;;;6.90;99.90;;;;;;6125316;23;20080;-88
2024/01/23 02:47:58;;;;;;;7.22;1.45;;;6.90;99.90;;;;;;6126614;23;20477;-89
2024/01/23 02:50:23;;;;;;;3.08;0.90;;;6.80;99.90;;;;;;6151524;23;20523;-88
2024/01/23 02:52:49;;;;;;;11.32;2.25;;;6.80;99.90;;;;;;6150996;23;20017;-88
2024/01/23 02:55:15;;;;;;;7.95;2.50;;;6.80;99.90;;;;;;6150774;23;20013;-88
2024/01/23 02:57:41;;;;;;;10.73;1.88;;;6.70;99.90;;;;;;6150988;23;20036;-88
2024/01/23 03:00:08;;;;;;;4.63;0.70;;;6.70;99.90;;;;;;6151339;23;20100;-88
2024/01/23 03:02:33;;;;;;;11.10;1.88;;;6.70;99.90;;;;;;6126445;23;20005;-89
2024/01/23 03:04:59;;;;;;;8.40;1.27;;;6.70;99.90;;;;;;6172031;23;20010;-89
2024/01/23 03:07:25;;;;;;;11.25;2.47;;;6.70;99.90;;;;;;6131568;23;20014;-89
2024/01/23 03:09:52;;;;;;;12.18;1.48;;;6.70;99.90;;;;;;6128835;23;20017;-89
2024/01/23 03:12:22;;;;;;;9.45;2.00;;;6.70;99.90;;;;;;6129087;23;20355;-89
2024/01/23 03:14:49;;;;;;;8.93;1.52;;;6.70;99.90;;;;;;6128643;23;20025;-89
2024/01/23 03:17:15;;;;;;;8.50;2.38;;;6.70;99.90;;;;;;6154169;23;22244;-86
2024/01/23 03:19:42;;;;;;;11.60;2.55;;;6.70;99.90;;;;;;6128347;23;20017;-88
2024/01/23 03:22:08;;;;;;;9.40;2.38;;;6.70;99.90;;;;;;6151040;23;20096;-89
2024/01/23 03:24:37;;;;;;;6.78;1.35;;;6.70;99.90;;;;;;6126359;23;20065;-88
2024/01/23 03:27:04;;;;;;;6.85;1.48;;;6.80;99.90;;;;;;6126105;23;20037;-89
2024/01/23 03:29:38;;;;;;;4.55;1.50;;;6.80;99.90;;;;;;6151155;23;20041;-89
2024/01/23 03:32:04;;;;;;;9.10;2.17;;;6.80;99.90;;;;;;6149523;23;20014;-88
2024/01/23 03:34:31;;;;;;;4.93;0.88;;;6.80;99.90;;;;;;6126620;23;20358;-89
2024/01/23 03:36:57;;;;;;;12.20;1.98;;;6.90;99.90;;;;;;6126334;23;20025;-88
2024/01/23 03:39:23;;;;;;;12.05;2.17;;;7.00;99.90;;;;;;6152455;23;20122;-89
2024/01/23 03:41:48;;;;;;;8.45;1.80;;;7.00;99.90;;;;;;6151097;23;20021;-89
2024/01/23 03:44:14;;;;;;;9.25;1.88;;;7.00;99.90;;;;;;6126227;23;20016;-88
2024/01/23 03:46:39;;;;;;;5.05;1.38;;;7.00;99.90;;;;;;6126192;23;20013;-88
2024/01/23 03:49:05;;;;;;;11.40;2.25;;;7.00;99.90;;;;;;6126281;23;20013;-88
2024/01/23 03:51:30;;;;;;;7.72;2.00;;;7.00;99.90;;;;;;6126425;23;20013;-88
2024/01/23 03:53:56;;;;;;;8.93;1.33;;;7.00;99.90;;;;;;6151306;23;20103;-89
2024/01/23 03:56:22;;;;;;;6.85;1.95;;;7.00;99.90;;;;;;6127009;23;20010;-88
2024/01/23 03:58:47;;;;;;;11.48;1.75;;;7.00;99.90;;;;;;6155120;23;20021;-88
2024/01/23 04:01:13;;;;;;;8.38;2.60;;;7.00;99.90;;;;;;6129177;23;20700;-88
2024/01/23 04:03:38;;;;;;;8.25;1.88;;;7.10;99.90;;;;;;6125925;23;20603;-88
2024/01/23 04:06:04;;;;;;;18.73;2.22;;;7.00;99.90;;;;;;6150858;23;20092;-88
2024/01/23 04:08:30;;;;;;;8.65;1.75;;;7.00;99.90;;;;;;6150301;23;20067;-88
2024/01/23 04:10:57;;;;;;;8.50;1.50;;;7.10;99.90;;;;;;6150629;23;20072;-88
2024/01/23 04:13:23;;;;;;;9.35;1.27;;;7.00;99.90;;;;;;6125922;23;20013;-88
2024/01/23 04:15:48;;;;;;;7.13;1.73;;;7.10;99.90;;;;;;6150103;23;20407;-89
2024/01/23 04:18:14;;;;;;;11.13;3.05;;;7.10;99.90;;;;;;6125825;23;20354;-89
2024/01/23 04:20:40;;;;;;;6.68;1.95;;;7.10;99.90;;;;;;6152432;23;20014;-87
2024/01/23 04:23:05;;;;;;;12.27;1.83;;;7.10;99.90;;;;;;6152272;23;20016;-88
2024/01/23 04:25:31;;;;;;;8.55;1.75;;;7.10;99.90;;;;;;6149631;23;20554;-88
2024/01/23 04:27:57;;;;;;;5.38;2.58;;;7.20;99.90;;;;;;6149935;23;20455;-88
2024/01/23 04:30:23;;;;;;;7.53;1.88;;;7.20;99.90;;;;;;6149357;23;20020;-88
2024/01/23 04:32:49;;;;;;;8.63;1.98;;;7.20;99.90;;;;;;6125889;23;20475;-88
2024/01/23 04:35:14;;;;;;;12.57;2.22;;;7.20;99.90;;;;;;6125740;23;20024;-88
2024/01/23 04:37:40;;;;;;;11.30;1.77;;;7.30;99.90;;;;;;6152034;23;20387;-87
2024/01/23 04:40:08;;;;;;;12.38;1.77;;;7.20;99.90;;;;;;6149659;23;20017;-87
2024/01/23 04:42:37;;;;;;;6.93;1.38;;;7.30;99.90;;;;;;6125592;23;20021;-88
2024/01/23 04:45:04;;;;;;;12.32;2.55;;;7.30;99.90;;;;;;6125033;23;20013;-89
2024/01/23 04:47:29;;;;;;;7.13;1.85;;;7.30;99.90;;;;;;6125269;23;20140;-89
2024/01/23 04:49:55;;;;;;;6.15;1.98;;;7.30;99.90;;;;;;6125661;23;20037;-88
2024/01/23 04:52:21;;;;;;;10.48;1.90;;;7.30;99.90;;;;;;6151364;23;20014;-89
2024/01/23 04:54:46;;;;;;;5.75;1.67;;;7.20;99.90;;;;;;6125447;23;20018;-88
2024/01/23 04:57:14;;;;;;;12.85;2.72;;;7.20;99.90;;;;;;6125381;23;20113;-89
2024/01/23 04:59:40;;;;;;;7.05;1.38;;;7.20;99.90;;;;;;6151060;23;20048;-89
2024/01/23 05:02:06;;;;;;;9.93;1.50;;;7.10;99.90;;;;;;6125656;23;20013;-88
2024/01/23 05:04:31;;;;;;;9.40;2.53;;;7.10;99.90;;;;;;6150078;23;20013;-89
2024/01/23 05:06:57;;;;;;;7.72;1.60;;;7.20;99.90;;;;;;6150329;23;20010;-88
2024/01/23 05:09:23;;;;;;;12.15;2.67;;;7.20;99.90;;;;;;6149786;23;20016;-88
2024/01/23 05:11:49;;;;;;;9.13;1.30;;;7.20;99.90;;;;;;6124771;23;20390;-88
2024/01/23 05:14:17;;;;;;;6.43;1.00;;;7.20;99.90;;;;;;6149704;23;20014;-87
2024/01/23 05:16:43;;;;;;;7.10;2.13;;;7.20;99.90;;;;;;6151158;23;20534;-88
2024/01/23 05:19:09;;;;;;;7.65;1.95;;;7.20;99.90;;;;;;6124956;23;20096;-88
2024/01/23 05:21:34;;;;;;;11.07;2.53;;;7.20;99.90;;;;;;6124810;23;20093;-88
2024/01/23 05:24:03;;;;;;;11.55;2.08;;;7.20;99.90;;;;;;6150160;23;20025;-87
2024/01/23 05:26:29;;;;;;;15.77;3.42;;;7.20;99.90;;;;;;6124244;23;20017;-88
2024/01/23 05:28:54;;;;;;;9.35;2.00;;;7.30;99.90;;;;;;6124380;23;20017;-88
2024/01/23 05:31:20;;;;;;;9.98;2.38;;;7.30;99.90;;;;;;6124204;23;20149;-89
2024/01/23 05:33:46;;;;;;;8.35;2.38;;;7.20;99.90;;;;;;6149839;23;20009;-88
2024/01/23 05:36:11;;;;;;;7.35;1.55;;;7.30;99.90;;;;;;6125132;23;20514;-88
2024/01/23 05:38:37;;;;;;;8.30;2.35;;;7.30;99.90;;;;;;6149952;23;20343;-88
2024/01/23 05:41:03;;;;;;;10.52;2.53;;;7.30;99.90;;;;;;6149762;23;20089;-88
2024/01/23 05:43:29;;;;;;;10.25;2.45;;;7.20;99.90;;;;;;6149366;23;20028;-88
2024/01/23 05:45:54;;;;;;;8.85;1.80;;;7.20;99.90;;;;;;6124128;23;20543;-88
2024/01/23 05:48:20;;;;;;;12.77;1.95;;;7.20;99.90;;;;;;6125043;23;20436;-89
2024/01/23 05:50:46;;;;;;;14.27;1.90;;;7.20;99.90;;;;;;6151002;23;20013;-89
2024/01/23 05:53:11;;;;;;;11.93;2.63;;;7.10;99.90;;;;;;6149342;23;20765;-89
2024/01/23 05:55:37;;;;;;;7.40;1.60;;;7.10;99.90;;;;;;6148929;23;20032;-88
2024/01/23 05:58:03;;;;;;;7.93;1.33;;;7.10;99.90;;;;;;6124077;23;20049;-88
2024/01/23 06:00:28;;;;;;;4.78;1.30;;;7.10;99.90;;;;;;6124678;23;20025;-88
2024/01/23 06:02:54;;;;;;;10.70;1.80;;;7.10;99.90;;;;;;6124371;23;20014;-87
2024/01/23 06:05:20;;;;;;;8.30;2.03;;;7.10;99.90;;;;;;6126917;23;20066;-88
2024/01/23 06:07:49;;;;;;;18.08;3.40;;;7.10;99.90;;;;;;6152192;23;20451;-89
2024/01/23 06:10:17;;;;;;;13.15;2.25;;;7.10;99.90;;;;;;6126485;23;20018;-88
2024/01/23 06:12:44;;;;;;;9.00;2.47;;;7.10;99.90;;;;;;6152748;23;20041;-88
2024/01/23 06:15:10;;;;;;;9.52;2.47;;;7.10;99.90;;;;;;6129317;23;20017;-88
2024/01/23 06:17:36;;;;;;;19.20;3.25;;;7.10;99.90;;;;;;6157204;23;20021;-88
2024/01/23 06:20:07;;;;;;;7.97;1.13;;;7.10;99.90;;;;;;6131850;23;20014;-88
2024/01/23 06:22:33;;;;;;;5.63;1.90;;;7.10;99.90;;;;;;6150711;23;20045;-88
2024/01/23 06:25:10;;;;;;;6.38;1.40;;;7.10;99.90;;;;;;6126531;23;20049;-88
2024/01/23 06:27:35;;;;;;;18.42;3.13;;;7.10;99.90;;;;;;6150848;23;20009;-88
2024/01/23 06:30:02;;;;;;;16.17;3.40;;;7.10;99.90;;;;;;6126495;23;20063;-88
2024/01/23 06:32:28;;;;;;;16.33;2.40;;;7.10;99.90;;;;;;6151720;23;20350;-88
2024/01/23 06:34:54;;;;;;;11.07;2.35;;;7.10;99.90;;;;;;6149899;23;20447;-88
2024/01/23 06:37:20;;;;;;;6.13;1.25;;;7.10;99.90;;;;;;6152203;23;20019;-88
2024/01/23 06:39:47;;;;;;;10.63;2.13;;;7.10;99.90;;;;;;6151100;23;20018;-88
2024/01/23 06:42:13;;;;;;;8.15;1.98;;;7.10;99.90;;;;;;6150995;23;20018;-88
2024/01/23 06:44:39;;;;;;;6.50;2.08;;;7.10;99.90;;;;;;6151118;23;20110;-87
2024/01/23 06:47:05;;;;;;;5.30;0.98;;;7.20;99.90;;;;;;6126496;23;20010;-88
2024/01/23 06:49:31;;;;;;;9.18;2.05;;;7.20;99.90;;;;;;6126436;23;20493;-88
2024/01/23 06:51:56;;;;;;;8.77;1.83;;;7.20;99.90;;;;;;6150167;23;20009;-88
2024/01/23 06:54:22;;;;;;;11.25;1.65;;;7.20;99.90;;;;;;6126490;23;20009;-88
2024/01/23 06:56:48;;;;;;;10.80;1.73;;;7.20;99.90;;;;;;6126676;23;20013;-88
2024/01/23 06:59:15;;;;;;;9.02;2.55;;;7.20;99.90;;;;;;6126079;23;20020;-88
2024/01/23 07:01:41;;;;;;;10.70;2.88;;;7.20;99.90;;;;;;6151160;23;20010;-87
2024/01/23 07:04:07;;;;;;;14.25;2.55;;;7.20;99.90;;;;;;6126012;23;20088;-88
2024/01/23 07:06:32;;;;;;;9.73;1.52;;;7.20;99.90;;;;;;6125659;23;20470;-88
2024/01/23 07:08:58;;;;;;;7.70;1.80;;;7.30;99.90;;;;;;6150561;23;20013;-89
2024/01/23 07:11:24;;;;;;;15.25;2.08;;;7.30;99.90;;;;;;6151467;23;20687;-89
2024/01/23 07:13:53;;;;;;;13.02;2.85;;;7.30;99.90;;;;;;6152517;23;20099;-89
2024/01/23 07:16:19;;;;;;;10.25;1.73;;;7.30;99.90;;;;;;6149391;23;20048;-88
2024/01/23 07:18:44;;;;;;;10.20;2.08;;;7.30;99.90;;;;;;6124232;23;20607;-89
2024/01/23 07:21:10;;;;;;;9.88;2.03;;;7.30;99.90;;;;;;6148538;23;20053;-87
2024/01/23 07:23:36;;;;;;;18.50;2.17;;;7.30;99.90;;;;;;6148934;23;20769;-87
2024/01/23 07:26:02;;;;;;;11.80;2.28;;;7.30;99.90;;;;;;6151081;23;20088;-87
2024/01/23 07:28:28;;;;;;;8.35;1.48;;;7.30;99.90;;;;;;6150990;23;20040;-88
2024/01/23 07:30:54;;;;;;;13.65;2.15;;;7.20;99.90;;;;;;6125697;23;20016;-88
2024/01/23 07:33:19;;;;;;;11.18;1.52;;;7.20;99.90;;;;;;6150609;23;20113;-88
2024/01/23 07:35:45;;;;;;;16.67;3.45;;;7.20;99.90;;;;;;6150758;23;20060;-88
2024/01/23 07:38:11;;;;;;;9.68;1.15;;;7.20;99.90;;;;;;6125999;23;20037;-88
2024/01/23 07:40:43;;;;;;;7.40;1.95;;;7.10;99.90;;;;;;6150411;23;20328;-88
2024/01/23 07:43:09;;;;;;;15.00;2.97;;;7.20;99.90;;;;;;6147111;23;20108;-87
2024/01/23 07:45:35;;;;;;;10.93;2.63;;;7.20;99.90;;;;;;6122263;23;20362;-87
2024/01/23 07:48:00;;;;;;;11.55;2.05;;;7.10;99.90;;;;;;6123939;23;20013;-87
2024/01/23 07:50:27;;;;;;;7.78;2.03;;;7.10;99.90;;;;;;6122912;23;20013;-87
2024/01/23 07:52:53;;;;;;;6.88;1.63;;;7.00;99.90;;;;;;6148482;23;20013;-87
2024/01/23 07:55:19;;;;;;;13.70;2.58;;;7.00;99.90;;;;;;6147570;23;20024;-87
2024/01/23 07:57:44;;;;;;;8.15;2.25;;;7.00;99.90;;;;;;6123907;23;20009;-88
2024/01/23 08:00:11;;;;;;;12.35;2.28;;;6.90;99.90;;;;;;6124002;23;20005;-88
2024/01/23 08:02:37;;;;;;;11.50;2.38;;;6.90;99.90;;;;;;6148918;23;20064;-88
2024/01/23 08:05:03;;;;;;;9.35;2.35;;;6.80;99.90;;;;;;6148450;23;20792;-88
2024/01/23 08:07:28;;;;;;;14.32;2.90;;;6.80;99.90;;;;;;6123658;23;20344;-88
2024/01/23 08:09:54;;;;;;;10.32;1.58;;;6.70;99.90;;;;;;6148773;23;20013;-88
2024/01/23 08:12:20;;;;;;;14.23;2.85;;;6.70;99.90;;;;;;6123131;23;20021;-87
2024/01/23 08:14:46;;;;;;;10.40;2.50;;;6.70;99.90;;;;;;6123247;23;20474;-88
2024/01/23 08:17:11;;;;;;;12.65;2.55;;;6.70;99.90;;;;;;6150458;23;20014;-88
2024/01/23 08:19:39;;;;;;;20.80;3.97;;;6.60;99.90;;;;;;6122750;23;20029;-88
2024/01/23 08:22:05;;;;;;;17.20;2.58;;;6.60;99.90;;;;;;6122768;23;20044;-87
2024/01/23 08:24:31;;;;;;;16.70;2.35;;;6.60;99.90;;;;;;6147006;23;20347;-87
2024/01/23 08:26:57;;;;;;;11.75;2.15;;;6.60;99.90;;;;;;6148908;23;20014;-87
2024/01/23 08:29:23;;;;;;;4.38;1.63;;;6.60;99.90;;;;;;6149556;23;20011;-87
2024/01/23 08:31:49;;;;;;;13.43;2.55;;;6.60;99.90;;;;;;6123142;23;20092;-87
2024/01/23 08:34:14;;;;;;;6.85;1.48;;;6.60;99.90;;;;;;6123378;23;20101;-88
2024/01/23 08:36:40;;;;;;;14.65;4.82;;;6.60;99.90;;;;;;6123281;23;20546;-88
2024/01/23 08:39:05;;;;;;;18.25;3.72;;;6.60;99.90;;;;;;6150494;23;20064;-87
2024/01/23 08:41:31;;;;;;;10.93;4.40;;;6.60;99.90;;;;;;6124635;23;20649;-87
2024/01/23 08:43:57;;;;;;;12.98;2.38;;;6.60;99.90;;;;;;6155870;23;20056;-87
2024/01/23 08:46:22;;;;;;;14.30;3.55;;;6.60;99.90;;;;;;6150421;23;20013;-88
2024/01/23 08:48:49;;;;;;;14.95;2.55;;;6.70;99.90;;;;;;6123574;23;20375;-88
2024/01/23 08:51:15;;;;;;;11.95;2.10;;;6.70;99.90;;;;;;6123429;23;20152;-88
2024/01/23 08:53:40;;;;;;;10.13;1.75;;;6.70;99.90;;;;;;6148005;23;20049;-88
2024/01/23 08:56:06;;;;;;;9.77;2.58;;;6.70;99.90;;;;;;6149690;23;20534;-87
2024/01/23 08:58:32;;;;;;;13.18;2.50;;;6.80;99.90;;;;;;6148497;23;20018;-88
2024/01/23 09:00:58;;;;;;;9.32;2.25;;;6.80;99.90;;;;;;6149087;23;20016;-87
2024/01/23 09:03:23;;;;;;;9.02;3.10;;;6.80;99.90;;;;;;6123459;23;20021;-87
2024/01/23 09:05:50;;;;;;;11.75;2.47;;;6.90;99.90;;;;;;6148690;23;20025;-88
2024/01/23 09:08:16;;;;;;;19.02;2.75;;;6.90;99.90;;;;;;6148311;23;20055;-88
2024/01/23 09:10:42;;;;;;;8.45;1.65;;;6.90;99.90;;;;;;6123454;23;20014;-89
2024/01/23 09:13:07;;;;;;;6.30;1.40;;;6.90;99.90;;;;;;6123201;23;20024;-88
2024/01/23 09:15:33;;;;;;;8.55;2.47;;;7.00;99.90;;;;;;6146641;23;20036;-87
2024/01/23 09:18:00;;;;;;;10.32;2.95;;;7.00;99.90;;;;;;6148581;23;20023;-87
2024/01/23 09:20:26;;;;;;;6.18;1.17;;;7.00;99.90;;;;;;6149823;23;20052;-87
2024/01/23 09:22:51;;;;;;;13.40;3.70;;;7.00;99.90;;;;;;6148052;23;20399;-87
2024/01/23 09:25:20;;;;;;;12.65;1.75;;;7.10;99.90;;;;;;6149687;23;20356;-88
2024/01/23 09:27:46;;;;;;;14.70;4.32;;;7.10;99.90;;;;;;6123683;23;20005;-88
2024/01/23 09:30:15;;;;;;;15.45;2.83;;;7.10;99.90;;;;;;6123099;23;20708;-88
2024/01/23 09:32:41;;;;;;;14.88;2.35;;;7.20;99.90;;;;;;6123991;23;20018;-88
2024/01/23 09:35:11;;;;;;;12.80;3.08;;;7.20;99.90;;;;;;6147453;23;20028;-88
2024/01/23 09:37:36;;;;;;;19.33;3.10;;;7.30;99.90;;;;;;6123398;23;20014;-88
2024/01/23 09:40:03;;;;;;;17.60;3.70;;;7.30;99.90;;;;;;6124106;23;20014;-88
2024/01/23 09:42:29;;;;;;;13.93;2.70;;;7.40;99.90;;;;;;6149001;23;20014;-88
2024/01/23 09:44:56;;;;;;;13.00;2.55;;;7.40;99.90;;;;;;6141936;23;20017;-88
2024/01/23 09:47:23;;;;;;;15.82;2.45;;;7.50;99.90;;;;;;6170202;23;20014;-89
2024/01/23 09:49:51;;;;;;;10.75;2.10;;;7.50;99.90;;;;;;6151021;23;20044;-88
2024/01/23 09:52:18;;;;;;;9.20;1.38;;;7.50;99.90;;;;;;6135050;23;20014;-88
2024/01/23 09:54:44;;;;;;;5.82;2.38;;;7.50;99.90;;;;;;6150809;23;19998;-89
2024/01/23 09:57:11;;;;;;;18.17;3.20;;;7.60;99.90;;;;;;6150814;23;20131;-89
2024/01/23 09:59:37;;;;;;;22.90;2.45;;;7.60;99.90;;;;;;6150705;23;20072;-89
2024/01/23 10:02:03;;;;;;;17.20;3.45;;;7.60;99.90;;;;;;6124942;23;20017;-89
2024/01/23 10:04:31;;;;;;;6.65;2.28;;;7.70;99.90;;;;;;6148435;23;20586;-89
2024/01/23 10:07:03;;;;;;;7.38;2.22;;;7.70;99.90;;;;;;6124334;23;20013;-88
2024/01/23 10:09:29;;;;;;;19.33;3.78;;;7.80;99.90;;;;;;6149402;23;20446;-88
2024/01/23 10:11:55;;;;;;;11.45;2.30;;;7.80;99.90;;;;;;6147087;23;20017;-88
2024/01/23 10:14:20;;;;;;;8.18;1.95;;;7.80;99.90;;;;;;6149771;23;20014;-88
2024/01/23 10:16:47;;;;;;;8.43;2.22;;;7.80;99.90;;;;;;6147556;23;20044;-88
2024/01/23 10:19:13;;;;;;;11.18;2.03;;;7.90;99.90;;;;;;6123578;23;20009;-88
2024/01/23 10:21:40;;;;;;;12.88;3.90;;;7.90;99.90;;;;;;6123725;23;20017;-88
2024/01/23 10:24:06;;;;;;;6.78;1.90;;;8.00;99.90;;;;;;6123346;23;20507;-89
2024/01/23 10:26:32;;;;;;;9.70;1.48;;;8.00;99.90;;;;;;6148055;23;20009;-89
2024/01/23 10:28:59;;;;;;;10.00;1.70;;;8.10;99.90;;;;;;6148190;23;20455;-90
2024/01/23 10:31:25;;;;;;;14.57;3.17;;;8.20;99.90;;;;;;6147458;23;20024;-89
2024/01/23 10:33:52;;;;;;;10.75;1.80;;;8.20;99.90;;;;;;6123374;23;20013;-89
2024/01/23 10:36:18;;;;;;;15.88;2.60;;;8.20;99.90;;;;;;6147528;23;20140;-88
2024/01/23 10:38:49;;;;;;;11.13;3.03;;;8.20;99.90;;;;;;6148009;23;20021;-89
2024/01/23 10:41:17;;;;;;;9.05;2.10;;;8.20;99.90;;;;;;6147019;23;20017;-89
2024/01/23 10:43:46;;;;;;;10.40;3.05;;;8.30;99.90;;;;;;6148021;23;20025;-88
2024/01/23 10:46:12;;;;;;;10.45;2.67;;;8.30;99.90;;;;;;6148294;23;20040;-87
2024/01/23 10:48:38;;;;;;;9.55;1.50;;;8.30;99.90;;;;;;6123370;23;20017;-88
2024/01/23 10:51:16;;;;;;;14.60;2.22;;;8.30;99.90;;;;;;6148293;23;20010;-89
2024/01/23 10:53:57;;;;;;;16.60;3.03;;;8.40;99.90;;;;;;6125441;23;20153;-89
2024/01/23 10:56:24;;;;;;;11.85;1.95;;;8.50;99.90;;;;;;6124480;23;20044;-89
2024/01/23 10:58:58;;;;;;;10.98;2.35;;;8.50;99.90;;;;;;6125528;23;20013;-89
2024/01/23 11:01:24;;;;;;;9.07;3.55;;;8.50;99.90;;;;;;6150499;23;20014;-89
2024/01/23 11:03:50;;;;;;;12.52;2.80;;;8.50;99.90;;;;;;6150994;23;20009;-89
2024/01/23 11:06:22;;;;;;;15.52;2.40;;;8.50;99.90;;;;;;6152245;23;20408;-89
2024/01/23 11:09:06;;;;;;;13.73;2.07;;;8.60;99.90;;;;;;6129811;23;20028;-88
2024/01/23 11:11:44;;;;;;;13.88;1.80;;;8.70;99.90;;;;;;6124479;23;20202;-88
2024/01/23 11:14:21;;;;;;;8.98;2.13;;;8.70;99.90;;;;;;6148969;23;20276;-88
2024/01/23 11:17:06;;;;;;;7.40;2.20;;;8.80;99.90;;;;;;6149772;23;20024;-90
2024/01/23 11:20:04;;;;;;;14.60;4.20;;;8.80;99.90;;;;;;6149944;23;20024;-89
2024/01/23 11:22:29;;;;;;;3.28;0.85;;;8.80;99.90;;;;;;6150044;23;20060;-89
2024/01/23 11:24:55;;;;;;;8.80;2.55;;;8.80;99.90;;;;;;6124633;23;20013;-90
2024/01/23 11:27:24;;;;;;;5.97;1.50;;;8.80;99.90;;;;;;6149046;23;20006;-89
2024/01/23 11:29:51;;;;;;;18.08;3.42;;;8.90;99.90;;;;;;6149513;23;20024;-90
2024/01/23 11:32:19;;;;;;;8.02;1.58;;;8.90;99.90;;;;;;6123552;23;20017;-89
2024/01/23 11:34:46;;;;;;;7.45;1.50;;;8.80;99.90;;;;;;6151559;23;20017;-90
2024/01/23 11:37:34;;;;;;;5.25;1.40;;;8.90;99.90;;;;;;6149082;23;20027;-90
2024/01/23 11:40:02;;;;;;;16.90;2.92;;;8.80;99.90;;;;;;6149885;23;20022;-91
2024/01/23 11:42:38;;;;;;;5.60;1.50;;;8.80;99.90;;;;;;6124653;23;20056;-90
2024/01/23 11:45:22;;;;;;;8.35;1.65;;;8.90;99.90;;;;;;6122954;23;20017;-91
2024/01/23 11:48:03;;;;;;;6.72;1.77;;;9.00;99.90;;;;;;6150370;23;20013;-91
2024/01/23 11:50:31;;;;;;;12.00;1.80;;;8.90;99.90;;;;;;6123137;23;20088;-91
2024/01/23 11:52:59;;;;;;;5.43;1.52;;;8.80;99.90;;;;;;6149788;23;20056;-91
2024/01/23 11:55:25;;;;;;;13.48;2.53;;;8.80;99.90;;;;;;6124208;23;20017;-90
2024/01/23 11:57:57;;;;;;;12.98;2.47;;;8.80;99.90;;;;;;6150954;23;20145;-90
2024/01/23 12:00:23;;;;;;;5.68;1.08;;;8.80;99.90;;;;;;6150062;23;20041;-91
2024/01/23 12:02:49;;;;;;;10.18;1.75;;;8.70;99.90;;;;;;6125525;23;20096;-90
2024/01/23 12:05:16;;;;;;;9.20;2.10;;;8.70;99.90;;;;;;6150826;23;20017;-90
2024/01/23 12:07:43;;;;;;;15.07;2.83;;;8.80;99.90;;;;;;6151439;23;20009;-90
2024/01/23 12:10:14;;;;;;;10.35;2.60;;;8.90;99.90;;;;;;6124542;23;20064;-91
2024/01/23 12:12:40;;;;;;;18.63;3.50;;;8.90;99.90;;;;;;6148077;23;20024;-91
2024/01/23 12:15:07;;;;;;;14.18;3.10;;;9.00;99.90;;;;;;6148723;23;20017;-90
2024/01/23 12:17:34;;;;;;;8.98;1.88;;;9.10;99.90;;;;;;6150393;23;20089;-89
2024/01/23 12:20:09;;;;;;;8.63;1.42;;;9.00;99.90;;;;;;6124041;23;20124;-91
2024/01/23 12:22:38;;;;;;;17.35;2.03;;;9.00;99.90;;;;;;6149302;23;20088;-90
2024/01/23 12:25:05;;;;;;;8.60;1.90;;;9.00;99.90;;;;;;6148276;23;20005;-90
2024/01/23 12:27:32;;;;;;;11.93;2.65;;;9.20;99.90;;;;;;6123973;23;20017;-90
2024/01/23 12:29:58;;;;;;;10.93;1.83;;;9.50;99.90;;;;;;6147940;23;20379;-90
2024/01/23 12:32:28;;;;;;;7.72;2.72;;;9.70;99.90;;;;;;6148201;23;20455;-90
2024/01/23 12:34:54;;;;;;;15.07;3.00;;;10.00;99.90;;;;;;6149682;23;20035;-90
2024/01/23 12:37:29;;;;;;;11.18;2.45;;;10.60;99.90;;;;;;6148681;23;20020;-90
2024/01/23 12:39:55;;;;;;;15.05;2.55;;;11.50;99.90;;;;;;6148594;23;20024;-90
2024/01/23 12:42:22;;;;;;;17.25;2.83;;;12.10;99.90;;;;;;6149882;23;20067;-90
2024/01/23 12:44:48;;;;;;;15.02;2.50;;;12.40;99.90;;;;;;6151076;23;20028;-90
2024/01/23 12:47:14;;;;;;;9.00;1.98;;;12.50;99.90;;;;;;6149228;23;20087;-91
2024/01/23 12:49:40;;;;;;;13.35;2.58;;;12.60;99.90;;;;;;6150774;23;20017;-92